createdAt,value
2022-11-24T00:00:50.166Z,42.25
2022-11-24T00:03:16.794Z,44.40
2022-11-24T00:05:43.440Z,47.00
2022-11-24T00:08:10.310Z,41.30
2022-11-24T00:10:36.727Z,45.13
2022-11-24T00:13:03.310Z,39.47
2022-11-24T00:15:29.789Z,43.08
2022-11-24T00:17:56.656Z,43.35
2022-11-24T00:20:23.074Z,41.00
2022-11-24T00:22:49.771Z,40.92
2022-11-24T00:25:16.235Z,41.92
2022-11-24T00:27:42.941Z,40.45
2022-11-24T00:30:09.911Z,40.03
2022-11-24T00:32:36.334Z,42.72
2022-11-24T00:35:02.786Z,43.15
2022-11-24T00:37:29.282Z,45.58
2022-11-24T00:39:55.915Z,41.90
2022-11-24T00:42:22.338Z,41.55
2022-11-24T00:44:48.959Z,42.00
2022-11-24T00:47:15.549Z,42.13
2022-11-24T00:49:41.997Z,40.65
2022-11-24T00:52:08.530Z,45.20
2022-11-24T00:54:35.264Z,39.25
2022-11-24T00:57:01.962Z,51.85
2022-11-24T00:59:28.410Z,38.10
2022-11-24T01:01:55.171Z,39.35
2022-11-24T01:04:21.934Z,40.83
2022-11-24T01:06:48.437Z,39.28
2022-11-24T01:09:14.903Z,39.03
2022-11-24T01:12:00.026Z,40.38
2022-11-24T01:14:26.888Z,42.85
2022-11-24T01:16:54.035Z,40.10
2022-11-24T01:19:20.808Z,39.45
2022-11-24T01:21:47.487Z,43.30
2022-11-24T01:24:14.639Z,42.45
2022-11-24T01:26:41.366Z,38.70
2022-11-24T01:29:07.976Z,41.63
2022-11-24T01:31:34.480Z,38.22
2022-11-24T01:34:00.872Z,38.50
2022-11-24T01:36:27.302Z,42.85
2022-11-24T01:38:56.030Z,43.05
2022-11-24T01:41:25.295Z,39.85
2022-11-24T01:43:53.193Z,40.35
2022-11-24T01:46:24.167Z,40.70
2022-11-24T01:49:11.337Z,39.80
2022-11-24T01:51:48.145Z,39.83
2022-11-24T01:54:19.055Z,38.22
2022-11-24T01:56:47.871Z,39.40
2022-11-24T01:59:15.715Z,38.25
2022-11-24T02:01:42.319Z,36.22
2022-11-24T02:04:13.066Z,43.00
2022-11-24T02:06:40.688Z,38.58
2022-11-24T02:09:13.643Z,38.30
2022-11-24T02:11:40.890Z,36.95
2022-11-24T02:14:10.071Z,39.20
2022-11-24T02:16:37.280Z,41.03
2022-11-24T02:19:14.474Z,38.38
2022-11-24T02:21:40.886Z,39.05
2022-11-24T02:24:17.727Z,39.95
2022-11-24T02:26:46.846Z,36.85
2022-11-24T02:29:14.322Z,37.30
2022-11-24T02:31:46.802Z,35.03
2022-11-24T02:34:13.206Z,35.03
2022-11-24T02:36:39.691Z,38.70
2022-11-24T02:39:12.090Z,33.65
2022-11-24T02:41:42.657Z,37.47
2022-11-24T02:44:09.243Z,36.25
2022-11-24T02:46:35.796Z,33.90
2022-11-24T02:49:02.279Z,37.67
2022-11-24T02:51:29.569Z,34.83
2022-11-24T02:53:56.012Z,38.67
2022-11-24T02:56:22.560Z,34.22
2022-11-24T02:58:49.020Z,39.70
2022-11-24T03:01:15.462Z,35.60
2022-11-24T03:03:42.013Z,32.10
2022-11-24T03:06:08.628Z,34.03
2022-11-24T03:08:35.144Z,35.42
2022-11-24T03:11:02.273Z,33.22
2022-11-24T03:13:29.187Z,34.72
2022-11-24T03:15:55.648Z,32.95
2022-11-24T03:18:22.249Z,33.88
2022-11-24T03:20:48.678Z,34.33
2022-11-24T03:23:15.110Z,34.13
2022-11-24T03:25:41.652Z,31.98
2022-11-24T03:28:08.211Z,33.38
2022-11-24T03:30:34.636Z,33.30
2022-11-24T03:33:01.055Z,34.60
2022-11-24T03:35:27.673Z,38.63
2022-11-24T03:37:54.078Z,35.78
2022-11-24T03:40:20.531Z,33.13
2022-11-24T03:42:47.038Z,33.70
2022-11-24T03:47:59.895Z,34.13
2022-11-24T03:50:26.366Z,34.50
2022-11-24T03:52:52.825Z,32.40
2022-11-24T03:55:19.266Z,31.60
2022-11-24T03:57:45.723Z,32.65
2022-11-24T04:00:12.429Z,30.77
2022-11-24T04:02:39.012Z,29.52
2022-11-24T04:05:06.055Z,34.80
2022-11-24T04:07:32.554Z,30.65
2022-11-24T04:09:59.065Z,32.63
2022-11-24T04:12:44.059Z,31.15
2022-11-24T04:15:16.007Z,32.50
2022-11-24T04:17:42.850Z,31.80
2022-11-24T04:20:10.552Z,31.10
2022-11-24T04:22:37.009Z,38.45
2022-11-24T04:25:04.984Z,35.63
2022-11-24T04:27:33.296Z,30.85
2022-11-24T04:30:00.153Z,30.30
2022-11-24T04:32:26.631Z,29.13
2022-11-24T04:34:53.108Z,30.88
2022-11-24T04:37:19.660Z,29.23
2022-11-24T04:39:46.397Z,29.55
2022-11-24T04:42:13.374Z,26.98
2022-11-24T04:44:40.059Z,26.38
2022-11-24T04:47:06.596Z,28.23
2022-11-24T04:49:33.062Z,27.92
2022-11-24T04:51:59.475Z,27.42
2022-11-24T04:54:25.882Z,27.33
2022-11-24T04:56:52.702Z,31.00
2022-11-24T04:59:19.435Z,30.10
2022-11-24T05:01:46.700Z,28.85
2022-11-24T05:04:15.205Z,27.00
2022-11-24T05:06:41.789Z,29.35
2022-11-24T05:09:08.868Z,29.85
2022-11-24T05:11:35.415Z,29.13
2022-11-24T05:14:02.190Z,27.35
2022-11-24T05:16:28.838Z,26.35
2022-11-24T05:18:55.312Z,27.75
2022-11-24T05:21:21.710Z,28.08
2022-11-24T05:23:48.116Z,27.17
2022-11-24T05:26:14.587Z,28.15
2022-11-24T05:28:41.037Z,26.70
2022-11-24T05:31:07.577Z,25.27
2022-11-24T05:33:34.161Z,26.25
2022-11-24T05:36:02.402Z,26.75
2022-11-24T05:38:30.140Z,25.92
2022-11-24T05:41:04.352Z,27.58
2022-11-24T05:43:30.972Z,25.05
2022-11-24T05:46:01.378Z,28.15
2022-11-24T05:48:28.335Z,27.15
2022-11-24T05:50:56.265Z,25.08
2022-11-24T05:53:23.176Z,23.33
2022-11-24T05:55:49.768Z,25.20
2022-11-24T05:58:16.195Z,24.23
2022-11-24T06:00:42.820Z,26.33
2022-11-24T06:03:11.028Z,27.00
2022-11-24T06:05:37.576Z,26.45
2022-11-24T06:08:05.292Z,31.10
2022-11-24T06:10:31.753Z,27.15
2022-11-24T06:12:58.196Z,27.92
2022-11-24T06:15:24.651Z,28.52
2022-11-24T06:17:55.674Z,27.48
2022-11-24T06:20:27.008Z,26.73
2022-11-24T06:22:58.819Z,31.35
2022-11-24T06:25:25.382Z,25.15
2022-11-24T06:27:52.039Z,29.38
2022-11-24T06:30:18.429Z,27.75
2022-11-24T06:32:49.321Z,25.15
2022-11-24T06:35:16.606Z,28.55
2022-11-24T06:37:43.051Z,26.20
2022-11-24T06:40:10.349Z,26.83
2022-11-24T06:42:37.284Z,26.95
2022-11-24T06:45:08.800Z,27.20
2022-11-24T06:47:36.174Z,29.98
2022-11-24T06:50:02.685Z,24.55
2022-11-24T06:52:29.169Z,24.80
2022-11-24T06:54:55.651Z,27.40
2022-11-24T06:57:22.076Z,26.83
2022-11-24T06:59:48.559Z,27.58
2022-11-24T07:02:15.142Z,27.23
2022-11-24T07:04:41.577Z,27.40
2022-11-24T07:07:08.250Z,25.65
2022-11-24T07:09:34.678Z,29.30
2022-11-24T07:12:02.245Z,26.67
2022-11-24T07:14:28.704Z,28.67
2022-11-24T07:16:55.190Z,24.77
2022-11-24T07:19:24.883Z,24.33
2022-11-24T07:21:51.786Z,24.60
2022-11-24T07:24:18.823Z,24.55
2022-11-24T07:26:45.359Z,25.27
2022-11-24T07:29:11.801Z,25.20
2022-11-24T07:31:38.316Z,23.63
2022-11-24T07:34:05.041Z,23.35
2022-11-24T07:36:31.570Z,23.55
2022-11-24T07:38:58.070Z,24.23
2022-11-24T07:41:24.757Z,23.85
2022-11-24T07:43:51.835Z,23.30
2022-11-24T07:46:19.835Z,23.90
2022-11-24T07:48:47.833Z,23.30
2022-11-24T07:51:14.753Z,24.42
2022-11-24T07:53:41.305Z,23.98
2022-11-24T07:56:09.261Z,26.27
2022-11-24T07:58:37.079Z,25.05
2022-11-24T08:01:15.470Z,24.33
2022-11-24T08:03:43.016Z,26.35
2022-11-24T08:06:30.288Z,24.75
2022-11-24T08:08:57.231Z,25.08
2022-11-24T08:11:23.969Z,25.48
2022-11-24T08:13:50.459Z,25.98
2022-11-24T08:16:18.837Z,25.63
2022-11-24T08:18:50.750Z,25.45
2022-11-24T08:21:17.771Z,25.85
2022-11-24T08:23:44.361Z,23.30
2022-11-24T08:26:17.602Z,24.05
2022-11-24T08:28:45.383Z,24.63
2022-11-24T08:31:15.143Z,25.75
2022-11-24T08:33:42.306Z,22.98
2022-11-24T08:36:14.968Z,23.85
2022-11-24T08:38:41.892Z,24.85
2022-11-24T08:41:11.958Z,24.73
2022-11-24T08:43:38.738Z,22.85
2022-11-24T08:46:07.604Z,22.83
2022-11-24T08:48:34.513Z,21.83
2022-11-24T08:51:07.883Z,24.35
2022-11-24T08:53:34.281Z,22.38
2022-11-24T08:56:01.282Z,22.92
2022-11-24T08:58:31.264Z,21.70
2022-11-24T09:01:07.350Z,19.95
2022-11-24T09:03:34.783Z,19.38
2022-11-24T09:06:02.375Z,19.70
2022-11-24T09:08:32.392Z,18.67
2022-11-24T09:11:03.718Z,20.38
2022-11-24T09:13:30.216Z,18.73
2022-11-24T09:15:56.687Z,20.02
2022-11-24T09:18:27.492Z,18.42
2022-11-24T09:21:11.646Z,21.20
2022-11-24T09:23:38.253Z,19.05
2022-11-24T09:26:05.690Z,18.67
2022-11-24T09:28:32.192Z,18.80
2022-11-24T09:31:03.612Z,18.52
2022-11-24T09:33:31.565Z,17.50
2022-11-24T09:35:58.671Z,19.10
2022-11-24T09:38:25.507Z,18.98
2022-11-24T09:40:54.473Z,18.80
2022-11-24T09:43:47.962Z,18.17
2022-11-24T09:46:25.780Z,17.27
2022-11-24T09:48:56.579Z,17.85
2022-11-24T09:51:27.014Z,17.75
2022-11-24T09:56:27.904Z,18.17
2022-11-24T09:59:05.285Z,17.40
2022-11-24T10:01:35.661Z,17.55
2022-11-24T10:04:06.217Z,18.08
2022-11-24T10:06:43.824Z,18.27
2022-11-24T10:09:36.660Z,17.27
2022-11-24T10:12:23.482Z,19.13
2022-11-24T10:15:11.058Z,18.27
2022-11-24T10:17:46.542Z,16.70
2022-11-24T10:20:24.149Z,18.63
2022-11-24T10:23:54.065Z,17.20
2022-11-24T10:26:34.976Z,16.35
2022-11-24T10:29:02.788Z,15.80
2022-11-24T10:31:34.192Z,16.45
2022-11-24T10:34:16.518Z,17.80
2022-11-24T10:37:07.120Z,16.45
2022-11-24T10:40:00.968Z,17.83
2022-11-24T10:42:33.386Z,17.05
2022-11-24T10:45:09.325Z,18.05
2022-11-24T10:47:35.861Z,18.67
2022-11-24T10:50:17.591Z,18.08
2022-11-24T10:52:50.744Z,18.98
2022-11-24T10:55:17.170Z,17.40
2022-11-24T10:57:45.121Z,18.67
2022-11-24T11:00:20.771Z,18.08
2022-11-24T11:02:48.833Z,18.23
2022-11-24T11:05:41.730Z,18.75
2022-11-24T11:08:14.282Z,18.20
2022-11-24T11:10:42.306Z,17.67
2022-11-24T11:13:23.238Z,17.67
2022-11-24T11:15:49.932Z,18.15
2022-11-24T11:18:18.249Z,18.90
2022-11-24T11:20:56.370Z,19.50
2022-11-24T11:26:11.878Z,17.67
2022-11-24T11:28:38.394Z,17.67
2022-11-24T11:31:22.808Z,17.02
2022-11-24T11:34:23.280Z,19.30
2022-11-24T11:36:56.051Z,18.13
2022-11-24T11:39:31.030Z,18.52
2022-11-24T11:42:07.246Z,18.95
2022-11-24T11:44:41.752Z,17.88
2022-11-24T11:47:15.539Z,18.23
2022-11-24T11:49:42.062Z,16.85
2022-11-24T11:52:23.051Z,16.65
2022-11-24T11:54:58.840Z,16.55
2022-11-24T11:57:54.525Z,15.73
2022-11-24T12:00:22.440Z,17.77
2022-11-24T12:03:20.405Z,15.57
2022-11-24T12:06:00.217Z,16.17
2022-11-24T12:08:56.012Z,18.02
2022-11-24T12:11:42.609Z,16.85
2022-11-24T12:14:42.809Z,17.52
2022-11-24T12:17:24.836Z,17.48
2022-11-24T12:20:15.253Z,16.17
2022-11-24T12:22:53.722Z,19.17
2022-11-24T12:25:41.963Z,18.42
2022-11-24T12:28:18.182Z,18.27
2022-11-24T12:31:04.781Z,18.60
2022-11-24T12:34:03.881Z,18.27
2022-11-24T12:36:45.320Z,17.33
2022-11-24T12:39:37.149Z,18.42
2022-11-24T12:42:35.685Z,17.10
2022-11-24T12:45:15.734Z,17.10
2022-11-24T12:47:53.418Z,17.88
2022-11-24T12:50:24.260Z,17.65
2022-11-24T12:52:58.877Z,17.88
2022-11-24T12:55:27.636Z,18.73
2022-11-24T12:58:09.334Z,18.92
2022-11-24T13:01:16.666Z,18.70
2022-11-24T13:04:10.236Z,16.63
2022-11-24T13:06:49.404Z,18.40
2022-11-24T13:09:16.815Z,17.15
2022-11-24T13:11:46.952Z,18.40
2022-11-24T13:14:22.091Z,18.55
2022-11-24T13:17:28.066Z,18.52
2022-11-24T13:19:39.060Z,19.15
2022-11-24T13:22:08.434Z,18.35
2022-11-24T13:24:37.387Z,19.70
2022-11-24T13:27:13.310Z,20.92
2022-11-24T13:29:41.820Z,20.17
2022-11-24T13:32:08.233Z,18.85
2022-11-24T13:34:40.631Z,18.38
2022-11-24T13:37:33.667Z,16.88
2022-11-24T13:40:11.311Z,18.38
2022-11-24T13:43:01.658Z,18.85
2022-11-24T13:45:41.173Z,18.23
2022-11-24T13:48:20.195Z,18.15
2022-11-24T13:50:50.197Z,19.73
2022-11-24T13:53:34.106Z,18.67
2022-11-24T13:56:09.834Z,23.42
2022-11-24T13:58:47.848Z,21.88
2022-11-24T14:01:24.076Z,20.65
2022-11-24T14:04:34.977Z,19.38
2022-11-24T14:09:54.072Z,18.05
2022-11-24T14:12:23.216Z,19.30
2022-11-24T14:14:51.626Z,18.27
2022-11-24T14:17:24.188Z,19.05
2022-11-24T14:19:53.425Z,21.52
2022-11-24T14:22:21.617Z,18.08
2022-11-24T14:24:53.662Z,19.48
2022-11-24T14:27:26.119Z,17.70
2022-11-24T14:29:57.792Z,18.17
2022-11-24T14:32:24.528Z,19.42
2022-11-24T14:34:52.143Z,19.02
2022-11-24T14:37:21.477Z,17.23
2022-11-24T14:39:48.435Z,17.98
2022-11-24T14:42:23.845Z,17.75
2022-11-24T14:44:54.298Z,17.13
2022-11-24T14:47:31.363Z,18.23
2022-11-24T14:50:10.713Z,18.15
2022-11-24T14:52:44.497Z,18.13
2022-11-24T14:55:27.216Z,17.73
2022-11-24T14:57:53.873Z,17.77
2022-11-24T15:00:28.313Z,22.67
2022-11-24T15:03:08.230Z,18.73
2022-11-24T15:05:55.656Z,16.98
2022-11-24T15:08:24.606Z,17.80
2022-11-24T15:10:58.495Z,18.95
2022-11-24T15:13:25.256Z,18.17
2022-11-24T15:16:01.815Z,17.52
2022-11-24T15:18:41.938Z,17.70
2022-11-24T15:21:12.953Z,17.33
2022-11-24T15:23:42.836Z,17.60
2022-11-24T15:26:11.948Z,16.75
2022-11-24T15:28:38.813Z,16.73
2022-11-24T15:31:09.537Z,16.92
2022-11-24T15:33:36.486Z,16.80
2022-11-24T15:36:02.927Z,17.25
2022-11-24T15:38:29.454Z,17.65
2022-11-24T15:40:59.035Z,17.27
2022-11-24T15:43:34.129Z,17.50
2022-11-24T15:46:01.439Z,17.13
2022-11-24T15:48:28.869Z,17.63
2022-11-24T15:50:56.910Z,16.73
2022-11-24T15:53:28.016Z,16.92
2022-11-24T15:55:56.314Z,16.80
2022-11-24T15:58:23.336Z,18.50
2022-11-24T16:00:50.970Z,18.42
2022-11-24T16:03:45.642Z,18.10
2022-11-24T16:06:03.907Z,16.83
2022-11-24T16:08:30.393Z,17.00
2022-11-24T16:10:56.822Z,18.27
2022-11-24T16:13:23.227Z,18.23
2022-11-24T16:15:49.988Z,16.35
2022-11-24T16:18:16.578Z,17.38
2022-11-24T16:20:42.987Z,18.70
2022-11-24T16:23:09.426Z,18.40
2022-11-24T16:25:36.285Z,18.05
2022-11-24T16:28:02.779Z,15.75
2022-11-24T16:30:29.207Z,17.45
2022-11-24T16:32:55.684Z,17.60
2022-11-24T16:35:22.105Z,17.30
2022-11-24T16:37:51.536Z,16.88
2022-11-24T16:40:18.321Z,15.90
2022-11-24T16:42:44.898Z,16.90
2022-11-24T16:45:12.965Z,16.02
2022-11-24T16:47:41.574Z,15.63
2022-11-24T16:50:09.984Z,16.23
2022-11-24T16:52:36.717Z,17.65
2022-11-24T16:55:04.026Z,17.25
2022-11-24T16:57:30.682Z,16.55
2022-11-24T16:59:57.093Z,17.17
2022-11-24T17:02:23.606Z,16.92
2022-11-24T17:04:52.423Z,16.45
2022-11-24T17:07:19.793Z,19.80
2022-11-24T17:09:46.275Z,24.02
2022-11-24T17:12:12.709Z,20.67
2022-11-24T17:14:39.179Z,19.77
2022-11-24T17:17:05.668Z,16.90
2022-11-24T17:19:32.228Z,17.65
2022-11-24T17:21:58.804Z,18.20
2022-11-24T17:24:25.236Z,19.08
2022-11-24T17:26:51.671Z,19.42
2022-11-24T17:29:18.516Z,18.85
2022-11-24T17:31:45.036Z,17.85
2022-11-24T17:34:12.153Z,16.40
2022-11-24T17:36:39.732Z,17.17
2022-11-24T17:39:07.141Z,17.48
2022-11-24T17:41:34.062Z,17.38
2022-11-24T17:44:01.190Z,17.38
2022-11-24T17:46:29.252Z,17.52
2022-11-24T17:48:55.782Z,19.45
2022-11-24T17:51:24.485Z,20.27
2022-11-24T17:53:52.366Z,22.33
2022-11-24T17:56:24.953Z,21.33
2022-11-24T17:58:56.365Z,20.63
2022-11-24T18:01:23.267Z,20.92
2022-11-24T18:03:53.375Z,22.38
2022-11-24T18:06:20.544Z,22.05
2022-11-24T18:08:47.602Z,22.85
2022-11-24T18:11:30.546Z,20.38
2022-11-24T18:14:01.437Z,19.25
2022-11-24T18:16:30.347Z,19.38
2022-11-24T18:19:08.416Z,16.75
2022-11-24T18:21:40.847Z,16.77
2022-11-24T18:24:11.573Z,18.73
2022-11-24T18:26:39.247Z,18.48
2022-11-24T18:29:05.963Z,16.45
2022-11-24T18:31:34.207Z,17.27
2022-11-24T18:34:01.479Z,17.92
2022-11-24T18:36:30.539Z,16.45
2022-11-24T18:39:00.054Z,17.35
2022-11-24T18:41:27.073Z,16.77
2022-11-24T18:43:53.499Z,17.60
2022-11-24T18:46:19.984Z,16.52
2022-11-24T18:48:46.995Z,17.42
2022-11-24T18:51:14.625Z,18.77
2022-11-24T18:53:42.712Z,22.38
2022-11-24T18:56:13.743Z,28.50
2022-11-24T18:58:40.350Z,40.90
2022-11-24T19:01:14.438Z,40.33
2022-11-24T19:03:48.360Z,36.22
2022-11-24T19:06:18.781Z,39.30
2022-11-24T19:08:45.610Z,32.67
2022-11-24T19:11:22.472Z,32.03
2022-11-24T19:13:49.539Z,28.50
2022-11-24T19:16:17.314Z,20.85
2022-11-24T19:18:46.486Z,24.10
2022-11-24T19:21:17.900Z,23.33
2022-11-24T19:23:44.330Z,24.17
2022-11-24T19:26:11.047Z,21.58
2022-11-24T19:28:37.543Z,21.40
2022-11-24T19:31:06.994Z,21.50
2022-11-24T19:33:33.830Z,21.52
2022-11-24T19:36:05.768Z,21.33
2022-11-24T19:38:33.459Z,18.52
2022-11-24T19:41:08.717Z,19.27
2022-11-24T19:43:35.246Z,18.90
2022-11-24T19:46:09.792Z,18.45
2022-11-24T19:48:38.277Z,18.00
2022-11-24T19:51:07.476Z,17.60
2022-11-24T19:53:34.881Z,17.30
2022-11-24T19:56:06.514Z,17.80
2022-11-24T19:58:32.970Z,18.75
2022-11-24T20:01:07.036Z,19.60
2022-11-24T20:03:33.996Z,18.88
2022-11-24T20:06:00.465Z,21.38
2022-11-24T20:08:31.151Z,24.05
2022-11-24T20:11:05.973Z,26.90
2022-11-24T20:13:34.597Z,28.58
2022-11-24T20:16:10.037Z,25.92
2022-11-24T20:18:41.967Z,25.88
2022-11-24T20:21:12.033Z,27.30
2022-11-24T20:23:39.518Z,24.65
2022-11-24T20:26:08.709Z,25.40
2022-11-24T20:28:35.199Z,24.45
2022-11-24T20:31:10.210Z,26.50
2022-11-24T20:33:37.425Z,24.27
2022-11-24T20:36:06.202Z,23.48
2022-11-24T20:38:34.384Z,20.92
2022-11-24T20:41:07.561Z,22.02
2022-11-24T20:43:35.884Z,20.52
2022-11-24T20:46:14.915Z,21.08
2022-11-24T20:48:41.521Z,22.75
2022-11-24T20:51:11.250Z,21.63
2022-11-24T20:53:38.749Z,20.65
2022-11-24T20:56:08.123Z,20.23
2022-11-24T20:58:35.969Z,21.42
2022-11-24T21:01:05.877Z,18.63
2022-11-24T21:03:34.639Z,17.95
2022-11-24T21:06:03.942Z,20.65
2022-11-24T21:08:36.152Z,20.70
2022-11-24T21:11:03.484Z,20.27
2022-11-24T21:13:33.682Z,20.55
2022-11-24T21:16:01.328Z,19.25
2022-11-24T21:18:27.826Z,19.17
2022-11-24T21:20:54.209Z,20.20
2022-11-24T21:23:20.670Z,18.52
2022-11-24T21:25:47.083Z,19.60
2022-11-24T21:28:13.724Z,19.23
2022-11-24T21:30:40.278Z,21.95
2022-11-24T21:33:07.051Z,19.55
2022-11-24T21:35:36.876Z,20.20
2022-11-24T21:38:03.961Z,21.83
2022-11-24T21:40:30.432Z,21.15
2022-11-24T21:42:59.344Z,22.02
2022-11-24T21:45:28.933Z,20.80
2022-11-24T21:47:59.926Z,22.20
2022-11-24T21:50:26.392Z,20.90
2022-11-24T21:52:52.852Z,22.38
2022-11-24T21:55:19.331Z,21.10
2022-11-24T21:57:46.331Z,21.98
2022-11-24T22:00:13.253Z,21.55
2022-11-24T22:02:39.769Z,21.77
2022-11-24T22:05:06.634Z,21.80
2022-11-24T22:07:33.202Z,20.67
2022-11-24T22:09:59.624Z,22.77
2022-11-24T22:12:26.066Z,24.08
2022-11-24T22:14:52.485Z,21.40
2022-11-24T22:17:18.972Z,21.35
2022-11-24T22:19:47.796Z,22.52
2022-11-24T22:22:14.247Z,21.88
2022-11-24T22:24:41.078Z,22.80
2022-11-24T22:27:07.745Z,22.52
2022-11-24T22:29:34.166Z,20.98
2022-11-24T22:32:00.774Z,22.58
2022-11-24T22:34:27.251Z,24.15
2022-11-24T22:36:53.745Z,24.52
2022-11-24T22:39:20.185Z,21.40
2022-11-24T22:41:46.711Z,22.83
2022-11-24T22:44:13.152Z,23.33
2022-11-24T22:46:39.545Z,23.40
2022-11-24T22:49:05.972Z,23.92
2022-11-24T22:51:34.518Z,23.45
2022-11-24T22:54:02.842Z,23.38
2022-11-24T22:56:32.033Z,22.95
2022-11-24T22:58:59.598Z,22.08
2022-11-24T23:01:27.586Z,24.40
2022-11-24T23:03:54.508Z,24.15
2022-11-24T23:06:23.691Z,23.67
2022-11-24T23:08:50.963Z,23.38
2022-11-24T23:11:29.142Z,25.05
2022-11-24T23:14:00.404Z,23.48
2022-11-24T23:16:27.617Z,22.65
2022-11-24T23:18:54.566Z,24.73
2022-11-24T23:21:27.185Z,24.02
2022-11-24T23:23:54.029Z,24.00
2022-11-24T23:26:23.426Z,25.55
2022-11-24T23:28:50.337Z,26.88
2022-11-24T23:31:22.154Z,25.98
2022-11-24T23:33:48.631Z,26.10
2022-11-24T23:36:17.260Z,25.00
2022-11-24T23:38:45.086Z,25.13
2022-11-24T23:41:14.643Z,25.52
2022-11-24T23:43:42.154Z,28.70
2022-11-24T23:46:14.659Z,29.60
2022-11-24T23:48:41.527Z,24.00
2022-11-24T23:51:12.184Z,29.20
2022-11-24T23:53:38.627Z,28.80
2022-11-24T23:56:05.848Z,29.52
2022-11-24T23:58:33.589Z,31.55
